sensor_id;sensor_type;location;lat;lon;timestamp;pressure;altitude;pressure_sealevel;temperature;humidity
85752;BME280;76192;39.766;2.716;2024-02-26T00:01:37;99966.00;;;17.98;43.82
85752;BME280;76192;39.766;2.716;2024-02-26T00:04:04;99952.03;;;18.01;43.79
85752;BME280;76192;39.766;2.716;2024-02-26T00:06:30;99963.23;;;18.01;43.59
85752;BME280;76192;39.766;2.716;2024-02-26T00:08:56;99959.79;;;18.01;43.57
85752;BME280;76192;39.766;2.716;2024-02-26T00:11:22;99957.37;;;18.01;43.44
85752;BME280;76192;39.766;2.716;2024-02-26T00:13:47;99941.33;;;18.02;43.47
85752;BME280;76192;39.766;2.716;2024-02-26T00:16:13;99941.66;;;18.03;43.36
85752;BME280;76192;39.766;2.716;2024-02-26T00:18:38;99941.16;;;18.02;43.34
85752;BME280;76192;39.766;2.716;2024-02-26T00:21:04;99956.67;;;18.02;43.31
85752;BME280;76192;39.766;2.716;2024-02-26T00:23:30;99949.59;;;18.05;43.12
85752;BME280;76192;39.766;2.716;2024-02-26T00:25:55;99943.38;;;18.09;43.15
85752;BME280;76192;39.766;2.716;2024-02-26T00:28:21;99960.45;;;18.10;42.99
85752;BME280;76192;39.766;2.716;2024-02-26T00:30:47;99940.63;;;18.13;43.03
85752;BME280;76192;39.766;2.716;2024-02-26T00:33:16;99944.94;;;18.13;43.08
85752;BME280;76192;39.766;2.716;2024-02-26T00:35:42;99949.77;;;18.14;43.00
85752;BME280;76192;39.766;2.716;2024-02-26T00:38:08;99950.95;;;18.18;43.02
85752;BME280;76192;39.766;2.716;2024-02-26T00:40:33;99933.02;;;18.19;42.94
85752;BME280;76192;39.766;2.716;2024-02-26T00:42:59;99928.70;;;18.21;42.94
85752;BME280;76192;39.766;2.716;2024-02-26T00:45:25;99938.18;;;18.21;42.91
85752;BME280;76192;39.766;2.716;2024-02-26T00:47:51;99925.41;;;18.25;42.62
85752;BME280;76192;39.766;2.716;2024-02-26T00:50:17;99934.55;;;18.28;42.53
85752;BME280;76192;39.766;2.716;2024-02-26T00:52:42;99923.49;;;18.30;42.31
85752;BME280;76192;39.766;2.716;2024-02-26T00:55:08;99921.61;;;18.31;42.23
85752;BME280;76192;39.766;2.716;2024-02-26T00:57:34;99927.46;;;18.31;42.11
85752;BME280;76192;39.766;2.716;2024-02-26T00:59:59;99930.56;;;18.36;41.87
85752;BME280;76192;39.766;2.716;2024-02-26T01:02:26;99928.81;;;18.38;41.93
85752;BME280;76192;39.766;2.716;2024-02-26T01:04:52;99922.78;;;18.38;42.12
85752;BME280;76192;39.766;2.716;2024-02-26T01:07:18;99925.38;;;18.36;42.21
85752;BME280;76192;39.766;2.716;2024-02-26T01:09:44;99932.62;;;18.36;42.42
85752;BME280;76192;39.766;2.716;2024-02-26T01:12:09;99936.24;;;18.36;42.52
85752;BME280;76192;39.766;2.716;2024-02-26T01:14:35;99924.16;;;18.37;42.73
85752;BME280;76192;39.766;2.716;2024-02-26T01:17:01;99919.86;;;18.37;42.67
85752;BME280;76192;39.766;2.716;2024-02-26T01:19:26;99908.47;;;18.36;42.90
85752;BME280;76192;39.766;2.716;2024-02-26T01:21:53;99896.92;;;18.31;42.99
85752;BME280;76192;39.766;2.716;2024-02-26T01:24:18;99902.80;;;18.27;43.07
85752;BME280;76192;39.766;2.716;2024-02-26T01:26:44;99908.85;;;18.25;43.08
85752;BME280;76192;39.766;2.716;2024-02-26T01:29:09;99905.40;;;18.25;42.96
85752;BME280;76192;39.766;2.716;2024-02-26T01:31:35;99903.66;;;18.24;42.97
85752;BME280;76192;39.766;2.716;2024-02-26T01:34:01;99902.80;;;18.24;43.14
85752;BME280;76192;39.766;2.716;2024-02-26T01:36:27;99891.26;;;18.24;43.10
85752;BME280;76192;39.766;2.716;2024-02-26T01:38:52;99893.16;;;18.21;43.25
85752;BME280;76192;39.766;2.716;2024-02-26T01:41:18;99883.68;;;18.19;43.33
85752;BME280;76192;39.766;2.716;2024-02-26T01:43:43;99898.86;;;18.18;43.39
85752;BME280;76192;39.766;2.716;2024-02-26T01:46:11;99887.65;;;18.19;43.40
85752;BME280;76192;39.766;2.716;2024-02-26T01:48:43;99887.83;;;18.15;43.53
85752;BME280;76192;39.766;2.716;2024-02-26T01:51:11;99891.63;;;18.15;43.57
85752;BME280;76192;39.766;2.716;2024-02-26T01:53:38;99888.67;;;18.17;43.69
85752;BME280;76192;39.766;2.716;2024-02-26T01:56:04;99880.08;;;18.17;43.63
85752;BME280;76192;39.766;2.716;2024-02-26T01:58:30;99884.55;;;18.15;43.76
85752;BME280;76192;39.766;2.716;2024-02-26T02:00:57;99891.98;;;18.13;43.98
85752;BME280;76192;39.766;2.716;2024-02-26T02:03:23;99886.28;;;18.12;44.04
85752;BME280;76192;39.766;2.716;2024-02-26T02:05:50;99886.63;;;18.11;44.18
85752;BME280;76192;39.766;2.716;2024-02-26T02:08:15;99888.52;;;18.09;44.33
85752;BME280;76192;39.766;2.716;2024-02-26T02:10:42;99884.73;;;18.07;44.39
85752;BME280;76192;39.766;2.716;2024-02-26T02:13:08;99886.83;;;18.02;44.63
85752;BME280;76192;39.766;2.716;2024-02-26T02:15:34;99909.93;;;18.00;44.72
85752;BME280;76192;39.766;2.716;2024-02-26T02:18:00;99884.93;;;18.04;44.59
85752;BME280;76192;39.766;2.716;2024-02-26T02:20:33;99865.09;;;18.02;44.75
85752;BME280;76192;39.766;2.716;2024-02-26T02:23:02;99875.80;;;17.99;44.88
85752;BME280;76192;39.766;2.716;2024-02-26T02:25:28;99867.17;;;17.98;44.86
85752;BME280;76192;39.766;2.716;2024-02-26T02:27:54;99869.08;;;17.99;45.01
85752;BME280;76192;39.766;2.716;2024-02-26T02:30:24;99859.60;;;17.98;45.03
85752;BME280;76192;39.766;2.716;2024-02-26T02:32:52;99858.90;;;17.97;45.08
85752;BME280;76192;39.766;2.716;2024-02-26T02:35:17;99878.21;;;17.95;45.35
85752;BME280;76192;39.766;2.716;2024-02-26T02:37:43;99877.53;;;17.94;45.23
85752;BME280;76192;39.766;2.716;2024-02-26T02:40:09;99882.71;;;17.93;45.42
85752;BME280;76192;39.766;2.716;2024-02-26T02:42:34;99897.02;;;17.94;45.60
85752;BME280;76192;39.766;2.716;2024-02-26T02:45:00;99888.40;;;17.95;45.46
85752;BME280;76192;39.766;2.716;2024-02-26T02:47:26;99874.95;;;17.93;45.84
85752;BME280;76192;39.766;2.716;2024-02-26T02:49:51;99886.67;;;17.91;45.88
85752;BME280;76192;39.766;2.716;2024-02-26T02:52:17;99894.10;;;17.89;46.16
85752;BME280;76192;39.766;2.716;2024-02-26T02:54:42;99895.30;;;17.90;46.48
85752;BME280;76192;39.766;2.716;2024-02-26T02:57:08;99888.74;;;17.91;46.33
85752;BME280;76192;39.766;2.716;2024-02-26T02:59:35;99894.44;;;17.90;46.61
85752;BME280;76192;39.766;2.716;2024-02-26T03:02:01;99872.20;;;17.90;46.69
85752;BME280;76192;39.766;2.716;2024-02-26T03:04:27;99864.79;;;17.89;46.73
85752;BME280;76192;39.766;2.716;2024-02-26T03:06:52;99868.92;;;17.83;46.84
85752;BME280;76192;39.766;2.716;2024-02-26T03:09:18;99860.31;;;17.82;46.93
85752;BME280;76192;39.766;2.716;2024-02-26T03:11:43;99858.59;;;17.81;46.90
85752;BME280;76192;39.766;2.716;2024-02-26T03:14:09;99871.00;;;17.84;46.90
85752;BME280;76192;39.766;2.716;2024-02-26T03:16:35;99846.69;;;17.86;46.73
85752;BME280;76192;39.766;2.716;2024-02-26T03:19:00;99840.98;;;17.85;46.80
85752;BME280;76192;39.766;2.716;2024-02-26T03:21:27;99840.48;;;17.82;46.87
85752;BME280;76192;39.766;2.716;2024-02-26T03:23:52;99869.30;;;17.80;47.04
85752;BME280;76192;39.766;2.716;2024-02-26T03:26:18;99861.36;;;17.83;46.94
85752;BME280;76192;39.766;2.716;2024-02-26T03:28:44;99859.62;;;17.84;46.94
85752;BME280;76192;39.766;2.716;2024-02-26T03:31:10;99843.41;;;17.84;46.90
85752;BME280;76192;39.766;2.716;2024-02-26T03:33:36;99850.48;;;17.82;46.96
85752;BME280;76192;39.766;2.716;2024-02-26T03:36:02;99835.16;;;17.80;47.00
85752;BME280;76192;39.766;2.716;2024-02-26T03:38:29;99845.84;;;17.79;47.03
85752;BME280;76192;39.766;2.716;2024-02-26T03:40:54;99848.23;;;17.80;46.82
85752;BME280;76192;39.766;2.716;2024-02-26T03:43:20;99827.21;;;17.81;46.79
85752;BME280;76192;39.766;2.716;2024-02-26T03:45:45;99833.09;;;17.80;46.69
85752;BME280;76192;39.766;2.716;2024-02-26T03:48:11;99820.66;;;17.82;46.62
85752;BME280;76192;39.766;2.716;2024-02-26T03:50:36;99812.73;;;17.81;46.76
85752;BME280;76192;39.766;2.716;2024-02-26T03:53:02;99810.31;;;17.80;46.59
85752;BME280;76192;39.766;2.716;2024-02-26T03:55:27;99798.42;;;17.82;46.60
85752;BME280;76192;39.766;2.716;2024-02-26T03:57:53;99825.66;;;17.81;46.48
85752;BME280;76192;39.766;2.716;2024-02-26T04:00:19;99823.06;;;17.85;46.26
85752;BME280;76192;39.766;2.716;2024-02-26T04:02:47;99813.23;;;17.85;46.39
85752;BME280;76192;39.766;2.716;2024-02-26T04:05:13;99782.72;;;17.85;46.34
85752;BME280;76192;39.766;2.716;2024-02-26T04:07:40;99796.17;;;17.84;46.32
85752;BME280;76192;39.766;2.716;2024-02-26T04:10:10;99771.33;;;17.85;46.21
85752;BME280;76192;39.766;2.716;2024-02-26T04:12:38;99764.09;;;17.86;46.21
85752;BME280;76192;39.766;2.716;2024-02-26T04:15:05;99757.88;;;17.86;46.18
85752;BME280;76192;39.766;2.716;2024-02-26T04:17:31;99773.05;;;17.85;46.23
85752;BME280;76192;39.766;2.716;2024-02-26T04:19:56;99756.67;;;17.85;46.35
85752;BME280;76192;39.766;2.716;2024-02-26T04:22:22;99761.52;;;17.83;46.36
85752;BME280;76192;39.766;2.716;2024-02-26T04:24:47;99757.04;;;17.83;46.62
85752;BME280;76192;39.766;2.716;2024-02-26T04:27:13;99755.66;;;17.82;46.61
85752;BME280;76192;39.766;2.716;2024-02-26T04:29:38;99776.70;;;17.81;46.67
85752;BME280;76192;39.766;2.716;2024-02-26T04:32:04;99799.46;;;17.81;47.07
85752;BME280;76192;39.766;2.716;2024-02-26T04:34:30;99793.26;;;17.78;47.19
85752;BME280;76192;39.766;2.716;2024-02-26T04:36:56;99785.16;;;17.78;47.37
85752;BME280;76192;39.766;2.716;2024-02-26T04:39:21;99794.26;;;17.76;47.52
85752;BME280;76192;39.766;2.716;2024-02-26T04:41:47;99788.92;;;17.75;47.46
85752;BME280;76192;39.766;2.716;2024-02-26T04:44:12;99817.02;;;17.77;47.55
85752;BME280;76192;39.766;2.716;2024-02-26T04:46:38;99815.67;;;17.79;47.61
85752;BME280;76192;39.766;2.716;2024-02-26T04:49:03;99811.70;;;17.79;47.77
85752;BME280;76192;39.766;2.716;2024-02-26T04:51:29;99798.26;;;17.79;47.90
85752;BME280;76192;39.766;2.716;2024-02-26T04:53:54;99821.53;;;17.79;47.75
85752;BME280;76192;39.766;2.716;2024-02-26T04:56:21;99803.42;;;17.80;48.02
85752;BME280;76192;39.766;2.716;2024-02-26T04:58:47;99824.61;;;17.76;48.01
85752;BME280;76192;39.766;2.716;2024-02-26T05:01:13;99825.31;;;17.74;48.09
85752;BME280;76192;39.766;2.716;2024-02-26T05:03:39;99811.34;;;17.71;48.40
85752;BME280;76192;39.766;2.716;2024-02-26T05:06:05;99813.77;;;17.69;48.80
85752;BME280;76192;39.766;2.716;2024-02-26T05:08:30;99830.64;;;17.67;48.83
85752;BME280;76192;39.766;2.716;2024-02-26T05:10:56;99807.57;;;17.65;48.90
85752;BME280;76192;39.766;2.716;2024-02-26T05:13:22;99807.75;;;17.60;49.15
85752;BME280;76192;39.766;2.716;2024-02-26T05:15:47;99817.23;;;17.56;48.98
85752;BME280;76192;39.766;2.716;2024-02-26T05:18:15;99798.96;;;17.53;49.20
85752;BME280;76192;39.766;2.716;2024-02-26T05:20:41;99790.02;;;17.49;49.38
85752;BME280;76192;39.766;2.716;2024-02-26T05:23:06;99805.36;;;17.45;49.74
85752;BME280;76192;39.766;2.716;2024-02-26T05:25:32;99790.37;;;17.42;49.83
85752;BME280;76192;39.766;2.716;2024-02-26T05:27:57;99778.15;;;17.39;49.92
85752;BME280;76192;39.766;2.716;2024-02-26T05:30:23;99788.32;;;17.39;49.64
85752;BME280;76192;39.766;2.716;2024-02-26T05:32:48;99787.98;;;17.39;49.57
85752;BME280;76192;39.766;2.716;2024-02-26T05:35:14;99808.64;;;17.40;49.75
85752;BME280;76192;39.766;2.716;2024-02-26T05:37:40;99817.77;;;17.38;50.27
85752;BME280;76192;39.766;2.716;2024-02-26T05:40:06;99810.38;;;17.34;50.52
85752;BME280;76192;39.766;2.716;2024-02-26T05:42:32;99811.06;;;17.30;50.50
85752;BME280;76192;39.766;2.716;2024-02-26T05:44:58;99825.70;;;17.30;50.34
85752;BME280;76192;39.766;2.716;2024-02-26T05:47:24;99818.98;;;17.30;50.45
85752;BME280;76192;39.766;2.716;2024-02-26T05:49:50;99826.39;;;17.26;51.05
85752;BME280;76192;39.766;2.716;2024-02-26T05:52:15;99812.61;;;17.22;51.00
85752;BME280;76192;39.766;2.716;2024-02-26T05:54:41;99816.40;;;17.20;50.99
85752;BME280;76192;39.766;2.716;2024-02-26T05:57:06;99819.68;;;17.17;51.04
85752;BME280;76192;39.766;2.716;2024-02-26T05:59:32;99834.31;;;17.13;51.32
85752;BME280;76192;39.766;2.716;2024-02-26T06:01:57;99847.05;;;17.08;51.70
85752;BME280;76192;39.766;2.716;2024-02-26T06:04:23;99841.36;;;17.03;51.80
85752;BME280;76192;39.766;2.716;2024-02-26T06:06:48;99842.05;;;16.99;51.99
85752;BME280;76192;39.766;2.716;2024-02-26T06:09:14;99843.44;;;16.96;52.11
85752;BME280;76192;39.766;2.716;2024-02-26T06:11:40;99852.37;;;16.93;52.00
85752;BME280;76192;39.766;2.716;2024-02-26T06:14:05;99855.64;;;16.88;52.06
85752;BME280;76192;39.766;2.716;2024-02-26T06:16:31;99873.36;;;16.86;52.30
85752;BME280;76192;39.766;2.716;2024-02-26T06:18:56;99881.98;;;16.84;52.25
85752;BME280;76192;39.766;2.716;2024-02-26T06:21:22;99884.20;;;16.83;52.12
85752;BME280;76192;39.766;2.716;2024-02-26T06:23:48;99864.23;;;16.80;52.32
85752;BME280;76192;39.766;2.716;2024-02-26T06:26:14;99864.91;;;16.76;52.18
85752;BME280;76192;39.766;2.716;2024-02-26T06:28:40;99874.69;;;16.73;52.33
85752;BME280;76192;39.766;2.716;2024-02-26T06:31:06;99896.70;;;16.73;52.97
85752;BME280;76192;39.766;2.716;2024-02-26T06:33:32;99875.89;;;16.75;53.00
85752;BME280;76192;39.766;2.716;2024-02-26T06:35:58;99872.33;;;16.78;52.51
85752;BME280;76192;39.766;2.716;2024-02-26T06:38:24;99871.81;;;16.79;52.69
85752;BME280;76192;39.766;2.716;2024-02-26T06:40:50;99870.09;;;16.79;52.66
85752;BME280;76192;39.766;2.716;2024-02-26T06:43:15;99865.43;;;16.80;52.82
85752;BME280;76192;39.766;2.716;2024-02-26T06:45:41;99874.21;;;16.81;52.84
85752;BME280;76192;39.766;2.716;2024-02-26T06:48:07;99884.55;;;16.84;52.80
85752;BME280;76192;39.766;2.716;2024-02-26T06:50:32;99857.35;;;16.85;52.53
85752;BME280;76192;39.766;2.716;2024-02-26T06:52:58;99874.91;;;16.87;52.81
85752;BME280;76192;39.766;2.716;2024-02-26T06:55:23;99877.33;;;16.88;52.77
85752;BME280;76192;39.766;2.716;2024-02-26T06:57:49;99873.02;;;16.89;52.42
85752;BME280;76192;39.766;2.716;2024-02-26T07:00:15;99883.36;;;16.91;52.60
85752;BME280;76192;39.766;2.716;2024-02-26T07:02:42;99874.75;;;16.92;52.85
85752;BME280;76192;39.766;2.716;2024-02-26T07:05:09;99872.52;;;16.93;52.86
85752;BME280;76192;39.766;2.716;2024-02-26T07:07:34;99869.94;;;16.95;53.30
85752;BME280;76192;39.766;2.716;2024-02-26T07:10:01;99866.34;;;16.96;53.33
85752;BME280;76192;39.766;2.716;2024-02-26T07:12:32;99867.02;;;16.98;53.38
85752;BME280;76192;39.766;2.716;2024-02-26T07:14:57;99883.89;;;16.98;54.11
85752;BME280;76192;39.766;2.716;2024-02-26T07:17:23;99892.16;;;16.98;54.24
85752;BME280;76192;39.766;2.716;2024-02-26T07:19:49;99901.98;;;17.02;53.88
85752;BME280;76192;39.766;2.716;2024-02-26T07:22:15;99906.64;;;17.06;53.81
85752;BME280;76192;39.766;2.716;2024-02-26T07:24:40;99904.23;;;17.09;53.88
85752;BME280;76192;39.766;2.716;2024-02-26T07:27:06;99906.31;;;17.11;54.47
85752;BME280;76192;39.766;2.716;2024-02-26T07:29:31;99906.98;;;17.13;54.76
85752;BME280;76192;39.766;2.716;2024-02-26T07:31:58;99900.96;;;17.13;55.15
85752;BME280;76192;39.766;2.716;2024-02-26T07:34:23;99895.79;;;17.13;55.36
85752;BME280;76192;39.766;2.716;2024-02-26T07:36:55;99903.04;;;17.12;56.23
85752;BME280;76192;39.766;2.716;2024-02-26T07:39:21;99894.25;;;17.12;56.19
85752;BME280;76192;39.766;2.716;2024-02-26T07:41:47;99893.21;;;17.12;56.15
85752;BME280;76192;39.766;2.716;2024-02-26T07:44:15;99875.30;;;17.13;56.35
85752;BME280;76192;39.766;2.716;2024-02-26T07:46:40;99863.77;;;17.14;56.88
85752;BME280;76192;39.766;2.716;2024-02-26T07:49:06;99866.70;;;17.14;57.28
85752;BME280;76192;39.766;2.716;2024-02-26T07:51:32;99864.63;;;17.15;58.12
85752;BME280;76192;39.766;2.716;2024-02-26T07:53:58;99869.27;;;17.14;57.55
85752;BME280;76192;39.766;2.716;2024-02-26T07:56:23;99873.24;;;17.15;57.98
85752;BME280;76192;39.766;2.716;2024-02-26T07:58:49;99871.17;;;17.16;58.61
85752;BME280;76192;39.766;2.716;2024-02-26T08:01:14;99885.82;;;17.18;58.87
85752;BME280;76192;39.766;2.716;2024-02-26T08:03:40;99890.13;;;17.18;59.75
85752;BME280;76192;39.766;2.716;2024-02-26T08:06:08;99886.50;;;17.20;59.31
85752;BME280;76192;39.766;2.716;2024-02-26T08:08:34;99882.37;;;17.22;58.99
85752;BME280;76192;39.766;2.716;2024-02-26T08:10:59;99878.58;;;17.22;59.33
85752;BME280;76192;39.766;2.716;2024-02-26T08:13:25;99881.16;;;17.23;59.44
85752;BME280;76192;39.766;2.716;2024-02-26T08:15:51;99882.20;;;17.27;59.47
85752;BME280;76192;39.766;2.716;2024-02-26T08:18:17;99882.90;;;17.34;59.96
85752;BME280;76192;39.766;2.716;2024-02-26T08:20:43;99883.25;;;17.43;60.05
85752;BME280;76192;39.766;2.716;2024-02-26T08:23:09;99880.48;;;17.51;60.19
85752;BME280;76192;39.766;2.716;2024-02-26T08:25:34;99882.55;;;17.53;60.76
85752;BME280;76192;39.766;2.716;2024-02-26T08:28:00;99883.59;;;17.58;60.19
85752;BME280;76192;39.766;2.716;2024-02-26T08:30:26;99881.17;;;17.65;60.03
85752;BME280;76192;39.766;2.716;2024-02-26T08:32:51;99882.02;;;17.69;59.69
85752;BME280;76192;39.766;2.716;2024-02-26T08:35:18;99888.74;;;17.71;59.92
85752;BME280;76192;39.766;2.716;2024-02-26T08:37:44;99891.50;;;17.73;59.73
85752;BME280;76192;39.766;2.716;2024-02-26T08:40:11;99889.09;;;17.76;60.03
85752;BME280;76192;39.766;2.716;2024-02-26T08:42:37;99891.36;;;17.80;60.23
85752;BME280;76192;39.766;2.716;2024-02-26T08:45:03;99887.38;;;17.86;59.89
85752;BME280;76192;39.766;2.716;2024-02-26T08:47:28;99894.43;;;17.90;59.93
85752;BME280;76192;39.766;2.716;2024-02-26T08:49:54;99893.41;;;17.92;60.05
85752;BME280;76192;39.766;2.716;2024-02-26T08:52:20;99894.09;;;17.94;59.68
85752;BME280;76192;39.766;2.716;2024-02-26T08:54:47;99892.88;;;17.98;58.81
85752;BME280;76192;39.766;2.716;2024-02-26T08:57:12;99885.45;;;18.01;59.18
85752;BME280;76192;39.766;2.716;2024-02-26T08:59:38;99877.00;;;18.05;59.09
85752;BME280;76192;39.766;2.716;2024-02-26T09:02:03;99862.84;;;18.09;58.93
85752;BME280;76192;39.766;2.716;2024-02-26T09:04:29;99849.89;;;18.13;58.90
85752;BME280;76192;39.766;2.716;2024-02-26T09:06:54;99850.56;;;18.15;58.89
85752;BME280;76192;39.766;2.716;2024-02-26T09:09:20;99849.38;;;18.13;58.77
85752;BME280;76192;39.766;2.716;2024-02-26T09:11:48;99857.83;;;18.11;58.80
85752;BME280;76192;39.766;2.716;2024-02-26T09:14:18;99860.92;;;18.10;58.57
85752;BME280;76192;39.766;2.716;2024-02-26T09:16:43;99860.42;;;18.08;58.53
85752;BME280;76192;39.766;2.716;2024-02-26T09:19:09;99860.41;;;18.09;57.80
85752;BME280;76192;39.766;2.716;2024-02-26T09:21:34;99872.66;;;18.10;57.46
85752;BME280;76192;39.766;2.716;2024-02-26T09:24:00;99872.84;;;18.09;56.97
85752;BME280;76192;39.766;2.716;2024-02-26T09:26:25;99873.37;;;18.05;56.65
85752;BME280;76192;39.766;2.716;2024-02-26T09:28:51;99867.33;;;18.00;56.60
85752;BME280;76192;39.766;2.716;2024-02-26T09:31:17;99871.64;;;18.03;56.87
85752;BME280;76192;39.766;2.716;2024-02-26T09:33:43;99872.48;;;18.07;56.39
85752;BME280;76192;39.766;2.716;2024-02-26T09:36:09;99876.10;;;18.14;56.41
85752;BME280;76192;39.766;2.716;2024-02-26T09:38:36;99873.13;;;18.26;56.47
85752;BME280;76192;39.766;2.716;2024-02-26T09:41:06;99875.83;;;18.42;56.97
85752;BME280;76192;39.766;2.716;2024-02-26T09:43:36;99874.55;;;18.59;57.92
85752;BME280;76192;39.766;2.716;2024-02-26T09:46:03;99869.64;;;18.74;58.02
85752;BME280;76192;39.766;2.716;2024-02-26T09:48:30;99868.91;;;18.84;58.62
85752;BME280;76192;39.766;2.716;2024-02-26T09:50:56;99861.94;;;18.94;58.43
85752;BME280;76192;39.766;2.716;2024-02-26T09:53:22;99863.61;;;19.04;58.54
85752;BME280;76192;39.766;2.716;2024-02-26T09:55:48;99857.15;;;19.12;58.48
85752;BME280;76192;39.766;2.716;2024-02-26T09:58:14;99845.70;;;19.17;57.85
85752;BME280;76192;39.766;2.716;2024-02-26T10:00:47;99843.43;;;19.21;57.74
85752;BME280;76192;39.766;2.716;2024-02-26T10:03:18;99847.55;;;19.25;57.95
85752;BME280;76192;39.766;2.716;2024-02-26T10:05:48;99850.98;;;19.28;58.01
85752;BME280;76192;39.766;2.716;2024-02-26T10:08:14;99853.91;;;19.28;58.09
85752;BME280;76192;39.766;2.716;2024-02-26T10:10:41;99853.58;;;19.27;58.22
85752;BME280;76192;39.766;2.716;2024-02-26T10:13:07;99850.10;;;19.29;57.86
85752;BME280;76192;39.766;2.716;2024-02-26T10:15:36;99849.92;;;19.29;57.80
85752;BME280;76192;39.766;2.716;2024-02-26T10:18:05;99855.65;;;19.26;57.70
85752;BME280;76192;39.766;2.716;2024-02-26T10:20:31;99863.52;;;19.17;57.88
85752;BME280;76192;39.766;2.716;2024-02-26T10:22:58;99866.52;;;19.05;58.01
85752;BME280;76192;39.766;2.716;2024-02-26T10:25:23;99863.52;;;18.90;57.72
85752;BME280;76192;39.766;2.716;2024-02-26T10:27:49;99857.58;;;18.70;55.67
85752;BME280;76192;39.766;2.716;2024-02-26T10:30:22;99853.36;;;18.49;54.74
85752;BME280;76192;39.766;2.716;2024-02-26T10:32:51;99863.64;;;18.25;55.09
85752;BME280;76192;39.766;2.716;2024-02-26T10:35:17;99874.05;;;18.02;55.74
85752;BME280;76192;39.766;2.716;2024-02-26T10:37:46;99890.65;;;17.72;55.63
85752;BME280;76192;39.766;2.716;2024-02-26T10:40:15;99923.05;;;17.41;56.03
85752;BME280;76192;39.766;2.716;2024-02-26T10:42:42;99947.98;;;17.06;58.48
85752;BME280;76192;39.766;2.716;2024-02-26T10:45:09;99942.88;;;16.78;58.43
85752;BME280;76192;39.766;2.716;2024-02-26T10:47:36;99932.29;;;16.57;58.19
85752;BME280;76192;39.766;2.716;2024-02-26T10:50:03;99939.41;;;16.38;58.39
85752;BME280;76192;39.766;2.716;2024-02-26T10:52:31;99943.56;;;16.12;57.77
85752;BME280;76192;39.766;2.716;2024-02-26T10:55:00;99960.30;;;15.94;58.68
85752;BME280;76192;39.766;2.716;2024-02-26T10:57:33;99958.63;;;15.77;59.63
85752;BME280;76192;39.766;2.716;2024-02-26T11:00:00;99951.45;;;15.65;59.58
85752;BME280;76192;39.766;2.716;2024-02-26T11:02:31;99952.57;;;15.56;60.33
85752;BME280;76192;39.766;2.716;2024-02-26T11:04:59;99966.20;;;15.46;60.49
85752;BME280;76192;39.766;2.716;2024-02-26T11:07:26;99964.56;;;15.34;60.97
85752;BME280;76192;39.766;2.716;2024-02-26T11:09:53;99965.32;;;15.24;61.77
85752;BME280;76192;39.766;2.716;2024-02-26T11:12:20;99958.92;;;15.20;61.99
85752;BME280;76192;39.766;2.716;2024-02-26T11:14:46;99948.95;;;15.19;62.46
85752;BME280;76192;39.766;2.716;2024-02-26T11:17:15;99940.05;;;15.21;62.66
85752;BME280;76192;39.766;2.716;2024-02-26T11:19:43;99938.33;;;15.22;62.35
85752;BME280;76192;39.766;2.716;2024-02-26T11:22:09;99948.14;;;15.23;62.78
85752;BME280;76192;39.766;2.716;2024-02-26T11:24:35;99946.23;;;15.22;62.59
85752;BME280;76192;39.766;2.716;2024-02-26T11:27:05;99944.36;;;15.23;62.21
85752;BME280;76192;39.766;2.716;2024-02-26T11:29:39;99934.43;;;15.27;62.02
85752;BME280;76192;39.766;2.716;2024-02-26T11:32:07;99926.07;;;15.32;61.88
85752;BME280;76192;39.766;2.716;2024-02-26T11:34:33;99917.17;;;15.35;62.09
85752;BME280;76192;39.766;2.716;2024-02-26T11:37:09;99912.39;;;15.38;62.24
85752;BME280;76192;39.766;2.716;2024-02-26T11:39:36;99917.25;;;15.43;62.22
85752;BME280;76192;39.766;2.716;2024-02-26T11:42:07;99913.33;;;15.48;62.27
85752;BME280;76192;39.766;2.716;2024-02-26T11:44:34;99913.00;;;15.50;61.94
85752;BME280;76192;39.766;2.716;2024-02-26T11:47:12;99893.99;;;15.57;61.79
85752;BME280;76192;39.766;2.716;2024-02-26T11:49:38;99894.37;;;15.62;61.79
85752;BME280;76192;39.766;2.716;2024-02-26T11:52:08;99910.51;;;15.61;61.34
85752;BME280;76192;39.766;2.716;2024-02-26T11:54:45;99909.14;;;15.61;60.68
85752;BME280;76192;39.766;2.716;2024-02-26T12:02:55;99878.66;;;15.72;61.34
85752;BME280;76192;39.766;2.716;2024-02-26T12:05:28;99858.96;;;15.80;61.68
85752;BME280;76192;39.766;2.716;2024-02-26T12:08:00;99843.72;;;15.90;62.16
85752;BME280;76192;39.766;2.716;2024-02-26T12:10:33;99838.97;;;16.01;62.11
85752;BME280;76192;39.766;2.716;2024-02-26T12:13:14;99833.67;;;16.09;62.01
85752;BME280;76192;39.766;2.716;2024-02-26T12:15:44;99829.25;;;16.19;61.50
85752;BME280;76192;39.766;2.716;2024-02-26T12:18:17;99826.54;;;16.29;61.11
85752;BME280;76192;39.766;2.716;2024-02-26T12:20:43;99824.33;;;16.35;59.99
85752;BME280;76192;39.766;2.716;2024-02-26T12:23:16;99828.11;;;16.34;59.46
85752;BME280;76192;39.766;2.716;2024-02-26T12:25:45;99840.31;;;16.36;59.28
85752;BME280;76192;39.766;2.716;2024-02-26T12:28:14;99836.73;;;16.40;58.97
85752;BME280;76192;39.766;2.716;2024-02-26T12:30:40;99826.05;;;16.39;58.61
85752;BME280;76192;39.766;2.716;2024-02-26T12:33:07;99820.71;;;16.38;58.30
85752;BME280;76192;39.766;2.716;2024-02-26T12:35:34;99813.14;;;16.36;58.26
85752;BME280;76192;39.766;2.716;2024-02-26T12:38:00;99808.66;;;16.32;58.71
85752;BME280;76192;39.766;2.716;2024-02-26T12:40:26;99808.97;;;16.22;59.09
85752;BME280;76192;39.766;2.716;2024-02-26T12:42:54;99806.70;;;16.12;59.20
85752;BME280;76192;39.766;2.716;2024-02-26T12:45:21;99791.20;;;16.08;59.36
85752;BME280;76192;39.766;2.716;2024-02-26T12:47:47;99788.42;;;16.03;60.14
85752;BME280;76192;39.766;2.716;2024-02-26T12:50:13;99785.83;;;15.95;59.96
85752;BME280;76192;39.766;2.716;2024-02-26T12:52:41;99784.08;;;15.90;60.14
85752;BME280;76192;39.766;2.716;2024-02-26T12:55:08;99777.52;;;15.84;60.63
85752;BME280;76192;39.766;2.716;2024-02-26T12:57:38;99774.91;;;15.78;61.05
85752;BME280;76192;39.766;2.716;2024-02-26T13:00:06;99780.05;;;15.74;61.35
85752;BME280;76192;39.766;2.716;2024-02-26T13:02:35;99775.73;;;15.71;60.87